createdAt,value
2023-05-06T00:00:02.355Z,81
2023-05-06T00:01:02.192Z,80
2023-05-06T00:03:02.205Z,82
2023-05-06T00:04:02.540Z,81
2023-05-06T00:05:02.019Z,81
2023-05-06T00:06:02.081Z,82
2023-05-06T00:07:01.928Z,82
2023-05-06T00:08:01.992Z,83
2023-05-06T00:09:01.842Z,83
2023-05-06T00:10:01.866Z,83
2023-05-06T00:11:01.721Z,83
2023-05-06T00:12:01.767Z,82
2023-05-06T00:13:01.713Z,82
2023-05-06T00:14:01.661Z,83
2023-05-06T00:15:01.544Z,84
2023-05-06T00:16:01.694Z,84
2023-05-06T00:17:02.525Z,84
2023-05-06T00:18:02.475Z,86
2023-05-06T00:19:02.454Z,86
2023-05-06T00:20:02.307Z,86
2023-05-06T00:21:02.363Z,85
2023-05-06T00:22:02.233Z,86
2023-05-06T00:23:02.313Z,86
2023-05-06T00:24:02.163Z,85
2023-05-06T00:25:02.207Z,89
2023-05-06T00:26:02.084Z,87
2023-05-06T00:27:02.045Z,90
2023-05-06T00:28:02.145Z,88
2023-05-06T00:29:01.946Z,88
2023-05-06T00:30:01.993Z,90
2023-05-06T00:31:01.856Z,89
2023-05-06T00:33:01.781Z,89
2023-05-06T00:34:01.525Z,89
2023-05-06T00:35:01.591Z,88
2023-05-06T00:36:01.562Z,88
2023-05-06T00:37:02.516Z,89
2023-05-06T00:38:02.410Z,90
2023-05-06T00:39:02.516Z,90
2023-05-06T00:40:02.379Z,91
2023-05-06T00:41:02.475Z,90
2023-05-06T00:42:02.421Z,90
2023-05-06T00:43:02.338Z,90
2023-05-06T00:44:02.213Z,92
2023-05-06T00:45:02.263Z,90
2023-05-06T00:46:02.146Z,90
2023-05-06T00:47:02.044Z,91
2023-05-06T00:48:02.236Z,92
2023-05-06T00:49:01.980Z,93
2023-05-06T00:50:01.827Z,93
2023-05-06T00:51:01.854Z,94
2023-05-06T00:52:01.772Z,94
2023-05-06T00:53:01.766Z,94
2023-05-06T00:54:01.632Z,95
2023-05-06T00:55:01.712Z,95
2023-05-06T00:56:01.582Z,97
2023-05-06T00:57:01.621Z,96
2023-05-06T00:58:01.485Z,96
2023-05-06T00:59:02.545Z,95
2023-05-06T01:00:03.394Z,98
2023-05-06T01:01:02.385Z,100
2023-05-06T01:02:02.331Z,100
2023-05-06T01:03:02.676Z,100
2023-05-06T01:04:01.557Z,100
2023-05-06T01:05:01.575Z,100
2023-05-06T01:06:02.506Z,100
2023-05-06T01:07:02.375Z,100
2023-05-06T01:08:02.446Z,100
2023-05-06T01:09:02.320Z,100
2023-05-06T01:10:02.369Z,100
2023-05-06T01:11:02.201Z,100
2023-05-06T01:12:02.204Z,100
2023-05-06T01:13:02.320Z,100
2023-05-06T01:14:02.046Z,100
2023-05-06T01:15:02.097Z,100
2023-05-06T01:16:01.961Z,100
2023-05-06T01:17:01.918Z,100
2023-05-06T01:18:01.934Z,100
2023-05-06T01:19:01.834Z,100
2023-05-06T01:20:02.062Z,100
2023-05-06T01:21:01.787Z,100
2023-05-06T01:22:01.849Z,100
2023-05-06T01:23:01.608Z,100
2023-05-06T01:24:01.643Z,100
2023-05-06T01:25:01.512Z,100
2023-05-06T01:26:02.662Z,100
2023-05-06T01:27:02.446Z,100
2023-05-06T01:28:02.554Z,100
2023-05-06T01:29:02.475Z,100
2023-05-06T01:30:02.452Z,100
2023-05-06T01:31:02.361Z,100
2023-05-06T01:33:02.175Z,100
2023-05-06T01:34:01.964Z,100
2023-05-06T01:35:01.957Z,100
2023-05-06T01:36:02.022Z,100
2023-05-06T01:37:01.880Z,100
2023-05-06T01:38:01.890Z,100
2023-05-06T01:39:01.768Z,100
2023-05-06T01:40:01.793Z,100
2023-05-06T01:41:01.621Z,100
2023-05-06T01:42:01.669Z,100
2023-05-06T01:43:01.597Z,100
2023-05-06T01:44:01.589Z,100
2023-05-06T01:45:01.508Z,100
2023-05-06T01:46:02.609Z,100
2023-05-06T01:47:02.438Z,100
2023-05-06T01:48:02.607Z,100
2023-05-06T01:49:02.404Z,100
2023-05-06T01:50:02.455Z,100
2023-05-06T01:51:02.322Z,100
2023-05-06T01:52:02.428Z,100
2023-05-06T01:53:02.309Z,100
2023-05-06T01:54:02.355Z,100
2023-05-06T01:55:02.240Z,100
2023-05-06T01:56:02.278Z,100
2023-05-06T01:57:02.281Z,100
2023-05-06T01:58:02.154Z,100
2023-05-06T01:59:02.167Z,100
2023-05-06T02:00:02.840Z,100
2023-05-06T02:01:01.698Z,100
2023-05-06T02:02:02.173Z,100
2023-05-06T02:03:01.886Z,100
2023-05-06T02:04:02.173Z,100
2023-05-06T02:05:02.263Z,100
2023-05-06T02:06:02.311Z,100
2023-05-06T02:07:02.261Z,100
2023-05-06T02:08:02.142Z,100
2023-05-06T02:09:02.332Z,100
2023-05-06T02:10:02.018Z,100
2023-05-06T02:11:02.070Z,100
2023-05-06T02:12:01.939Z,100
2023-05-06T02:13:02.025Z,100
2023-05-06T02:14:01.869Z,100
2023-05-06T02:15:01.931Z,100
2023-05-06T02:16:01.773Z,100
2023-05-06T02:17:01.875Z,100
2023-05-06T02:18:02.006Z,100
2023-05-06T02:19:01.734Z,100
2023-05-06T02:20:01.768Z,100
2023-05-06T02:21:01.561Z,100
2023-05-06T02:22:01.616Z,100
2023-05-06T02:23:01.458Z,100
2023-05-06T02:24:01.589Z,100
2023-05-06T02:25:02.543Z,100
2023-05-06T02:26:02.444Z,100
2023-05-06T02:27:02.477Z,100
2023-05-06T02:28:02.307Z,100
2023-05-06T02:29:02.357Z,100
2023-05-06T02:30:02.296Z,100
2023-05-06T02:31:02.309Z,100
2023-05-06T02:32:02.226Z,100
2023-05-06T02:33:02.413Z,100
2023-05-06T02:34:02.218Z,100
2023-05-06T02:35:02.065Z,100
2023-05-06T02:36:02.120Z,100
2023-05-06T02:37:02.086Z,100
2023-05-06T02:38:01.934Z,100
2023-05-06T02:39:01.996Z,100
2023-05-06T02:40:01.854Z,100
2023-05-06T02:41:01.887Z,100
2023-05-06T02:42:01.716Z,100
2023-05-06T02:43:01.928Z,100
2023-05-06T02:44:01.686Z,100
2023-05-06T02:45:01.717Z,100
2023-05-06T02:46:01.641Z,100
2023-05-06T02:47:01.603Z,100
2023-05-06T02:48:01.757Z,100
2023-05-06T02:49:01.493Z,100
2023-05-06T02:50:01.538Z,100
2023-05-06T02:51:01.498Z,100
2023-05-06T02:52:02.519Z,100
2023-05-06T02:53:02.362Z,100
2023-05-06T02:54:02.429Z,100
2023-05-06T02:55:02.290Z,100
2023-05-06T02:56:02.407Z,100
2023-05-06T02:57:02.268Z,100
2023-05-06T02:58:02.355Z,100
2023-05-06T02:59:02.235Z,100
2023-05-06T03:00:02.259Z,100
2023-05-06T03:01:02.265Z,100
2023-05-06T03:03:02.030Z,100
2023-05-06T03:04:01.913Z,100
2023-05-06T03:05:01.872Z,100
2023-05-06T03:06:01.703Z,100
2023-05-06T03:07:01.728Z,100
2023-05-06T03:08:01.555Z,100
2023-05-06T03:09:01.585Z,100
2023-05-06T03:10:01.479Z,100
2023-05-06T03:11:02.516Z,100
2023-05-06T03:12:02.435Z,100
2023-05-06T03:13:02.658Z,100
2023-05-06T03:14:02.454Z,100
2023-05-06T03:15:02.461Z,100
2023-05-06T03:16:02.387Z,100
2023-05-06T03:18:01.690Z,100
2023-05-06T03:19:01.427Z,100
2023-05-06T03:20:02.510Z,100
2023-05-06T03:21:02.375Z,100
2023-05-06T03:22:02.345Z,100
2023-05-06T03:23:02.346Z,100
2023-05-06T03:24:02.371Z,100
2023-05-06T03:25:02.232Z,100
2023-05-06T03:26:02.292Z,100
2023-05-06T03:27:02.177Z,100
2023-05-06T03:28:02.051Z,100
2023-05-06T03:29:02.166Z,100
2023-05-06T03:30:01.963Z,100
2023-05-06T03:31:01.959Z,100
2023-05-06T03:32:01.868Z,100
2023-05-06T03:33:02.010Z,100
2023-05-06T03:34:01.779Z,100
2023-05-06T03:35:01.844Z,100
2023-05-06T03:36:01.692Z,100
2023-05-06T03:37:01.745Z,100
2023-05-06T03:38:01.590Z,100
2023-05-06T03:39:01.643Z,100
2023-05-06T03:40:01.496Z,100
2023-05-06T03:41:01.531Z,100
2023-05-06T03:42:02.507Z,100
2023-05-06T03:43:02.406Z,100
2023-05-06T03:44:02.449Z,100
2023-05-06T03:45:02.338Z,100
2023-05-06T03:46:02.458Z,100
2023-05-06T03:48:02.251Z,100
2023-05-06T03:49:02.097Z,100
2023-05-06T03:50:02.056Z,100
2023-05-06T03:51:02.088Z,100
2023-05-06T03:52:02.012Z,100
2023-05-06T03:53:01.598Z,100
2023-05-06T03:54:01.634Z,100
2023-05-06T03:55:01.489Z,100
2023-05-06T03:56:02.500Z,100
2023-05-06T03:57:02.452Z,100
2023-05-06T03:58:02.422Z,100
2023-05-06T03:59:02.272Z,100
2023-05-06T04:00:02.386Z,100
2023-05-06T04:01:02.275Z,100
2023-05-06T04:02:02.294Z,100
2023-05-06T04:03:02.480Z,100
2023-05-06T04:04:02.630Z,100
2023-05-06T04:05:02.363Z,100
2023-05-06T04:06:02.452Z,100
2023-05-06T04:07:02.303Z,100
2023-05-06T04:08:02.368Z,100
2023-05-06T04:09:02.280Z,100
2023-05-06T04:10:02.290Z,100
2023-05-06T04:11:02.261Z,100
2023-05-06T04:12:02.116Z,100
2023-05-06T04:13:02.274Z,100
2023-05-06T04:14:02.110Z,100
2023-05-06T04:15:02.002Z,100
2023-05-06T04:16:02.145Z,100
2023-05-06T04:18:01.991Z,100
2023-05-06T04:19:03.272Z,100
2023-05-06T04:20:01.873Z,100
2023-05-06T04:21:01.922Z,100
2023-05-06T04:22:01.801Z,100
2023-05-06T04:23:01.880Z,100
2023-05-06T04:24:01.722Z,100
2023-05-06T04:25:01.793Z,100
2023-05-06T04:26:01.629Z,100
2023-05-06T04:27:01.647Z,100
2023-05-06T04:28:01.495Z,100
2023-05-06T04:29:01.556Z,100
2023-05-06T04:30:02.446Z,100
2023-05-06T04:31:02.345Z,100
2023-05-06T04:32:02.390Z,100
2023-05-06T04:33:02.350Z,100
2023-05-06T04:34:02.256Z,100
2023-05-06T04:35:02.089Z,100
2023-05-06T04:36:02.156Z,100
2023-05-06T04:37:01.956Z,100
2023-05-06T04:38:01.987Z,100
2023-05-06T04:39:01.855Z,100
2023-05-06T04:40:01.924Z,100
2023-05-06T04:41:01.806Z,100
2023-05-06T04:42:01.861Z,100
2023-05-06T04:43:01.735Z,100
2023-05-06T04:44:01.778Z,100
2023-05-06T04:45:01.565Z,100
2023-05-06T04:46:01.693Z,100
2023-05-06T04:47:02.403Z,100
2023-05-06T04:48:02.384Z,100
2023-05-06T04:49:02.359Z,100
2023-05-06T04:50:02.388Z,100
2023-05-06T04:51:02.372Z,100
2023-05-06T04:52:02.251Z,100
2023-05-06T04:53:02.292Z,100
2023-05-06T04:54:02.301Z,100
2023-05-06T04:55:02.160Z,100
2023-05-06T04:56:02.199Z,100
2023-05-06T04:57:02.026Z,100
2023-05-06T04:58:02.010Z,100
2023-05-06T04:59:02.023Z,100
2023-05-06T05:00:01.925Z,100
2023-05-06T05:01:02.072Z,100
2023-05-06T05:02:01.919Z,100
2023-05-06T05:03:02.289Z,100
2023-05-06T05:04:02.354Z,100
2023-05-06T05:05:02.154Z,100
2023-05-06T05:06:02.218Z,100
2023-05-06T05:07:02.118Z,100
2023-05-06T05:08:02.049Z,100
2023-05-06T05:09:02.208Z,100
2023-05-06T05:10:02.054Z,100
2023-05-06T05:11:02.060Z,100
2023-05-06T05:12:02.101Z,100
2023-05-06T05:13:02.062Z,100
2023-05-06T05:14:02.683Z,100
2023-05-06T05:15:02.469Z,100
2023-05-06T05:16:02.340Z,100
2023-05-06T05:17:02.308Z,100
2023-05-06T05:18:02.367Z,100
2023-05-06T05:19:04.377Z,100
2023-05-06T05:20:01.841Z,100
2023-05-06T05:21:01.817Z,100
2023-05-06T05:22:01.732Z,100
2023-05-06T05:23:01.764Z,100
2023-05-06T05:24:01.713Z,100
2023-05-06T05:25:01.720Z,100
2023-05-06T05:26:01.554Z,100
2023-05-06T05:27:01.595Z,100
2023-05-06T05:28:01.458Z,100
2023-05-06T05:29:02.526Z,100
2023-05-06T05:30:02.438Z,100
2023-05-06T05:31:02.510Z,100
2023-05-06T05:32:02.488Z,100
2023-05-06T05:33:02.507Z,100
2023-05-06T05:34:02.327Z,100
2023-05-06T05:35:02.419Z,100
2023-05-06T05:36:02.304Z,100
2023-05-06T05:37:02.423Z,100
2023-05-06T05:38:02.366Z,100
2023-05-06T05:39:02.319Z,100
2023-05-06T05:40:02.210Z,100
2023-05-06T05:41:02.337Z,100
2023-05-06T05:42:02.416Z,100
2023-05-06T05:43:02.196Z,100
2023-05-06T05:44:02.220Z,100
2023-05-06T05:45:02.219Z,100
2023-05-06T05:46:02.090Z,100
2023-05-06T05:48:01.995Z,100
2023-05-06T05:49:01.801Z,100
2023-05-06T05:50:01.870Z,100
2023-05-06T05:51:01.712Z,100
2023-05-06T05:52:01.764Z,100
2023-05-06T05:53:01.634Z,100
2023-05-06T05:54:01.647Z,100
2023-05-06T05:55:01.516Z,100
2023-05-06T05:56:02.545Z,100
2023-05-06T05:57:02.377Z,100
2023-05-06T05:58:02.442Z,100
2023-05-06T05:59:02.300Z,100
2023-05-06T06:00:02.407Z,100
2023-05-06T06:01:02.239Z,100
2023-05-06T06:02:02.165Z,100
2023-05-06T06:03:02.370Z,100
2023-05-06T06:04:02.684Z,100
2023-05-06T06:05:01.761Z,100
2023-05-06T06:06:01.769Z,100
2023-05-06T06:07:01.741Z,100
2023-05-06T06:08:04.117Z,100
2023-05-06T06:09:01.765Z,100
2023-05-06T06:10:01.813Z,100
2023-05-06T06:11:01.633Z,100
2023-05-06T06:12:01.691Z,100
2023-05-06T06:13:01.585Z,100
2023-05-06T06:14:01.556Z,100
2023-05-06T06:15:02.574Z,100
2023-05-06T06:16:02.399Z,100
2023-05-06T06:17:02.418Z,100
2023-05-06T06:18:02.569Z,100
2023-05-06T06:19:02.366Z,100
2023-05-06T06:20:02.408Z,100
2023-05-06T06:21:02.353Z,100
2023-05-06T06:22:02.401Z,100
2023-05-06T06:23:02.262Z,100
2023-05-06T06:24:02.308Z,100
2023-05-06T06:25:02.250Z,100
2023-05-06T06:26:02.075Z,100
2023-05-06T06:27:02.074Z,100
2023-05-06T06:28:01.948Z,100
2023-05-06T06:29:01.958Z,100
2023-05-06T06:30:02.007Z,100
2023-05-06T06:31:01.853Z,100
2023-05-06T06:32:01.803Z,100
2023-05-06T06:33:01.860Z,100
2023-05-06T06:34:01.597Z,100
2023-05-06T06:35:01.675Z,100
2023-05-06T06:36:01.433Z,100
2023-05-06T06:37:02.518Z,100
2023-05-06T06:38:02.377Z,100
2023-05-06T06:39:02.461Z,100
2023-05-06T06:40:02.402Z,100
2023-05-06T06:41:02.492Z,100
2023-05-06T06:42:02.372Z,100
2023-05-06T06:43:02.512Z,100
2023-05-06T06:44:02.437Z,100
2023-05-06T06:45:02.419Z,100
2023-05-06T06:46:02.514Z,100
2023-05-06T06:47:02.240Z,100
2023-05-06T06:48:02.363Z,100
2023-05-06T06:49:02.191Z,100
2023-05-06T06:50:02.269Z,100
2023-05-06T06:51:02.169Z,100
2023-05-06T06:52:02.097Z,100
2023-05-06T06:53:06.328Z,100
2023-05-06T06:54:02.363Z,100
2023-05-06T06:55:02.243Z,100
2023-05-06T06:56:02.322Z,100
2023-05-06T06:57:02.197Z,100
2023-05-06T06:58:02.251Z,100
2023-05-06T06:59:02.090Z,100
2023-05-06T07:00:03.660Z,100
2023-05-06T07:01:01.684Z,100
2023-05-06T07:02:01.706Z,100
2023-05-06T07:03:01.853Z,100
2023-05-06T07:04:01.679Z,100
2023-05-06T07:05:01.688Z,100
2023-05-06T07:06:01.551Z,100
2023-05-06T07:07:01.570Z,100
2023-05-06T07:08:01.446Z,100
2023-05-06T07:09:01.536Z,100
2023-05-06T07:10:02.479Z,100
2023-05-06T07:11:02.402Z,100
2023-05-06T07:12:02.508Z,100
2023-05-06T07:13:02.447Z,100
2023-05-06T07:14:02.531Z,100
2023-05-06T07:15:02.361Z,100
2023-05-06T07:16:02.511Z,100
2023-05-06T07:18:02.286Z,100
2023-05-06T07:19:02.024Z,100
2023-05-06T07:20:02.054Z,100
2023-05-06T07:21:02.131Z,100
2023-05-06T07:22:02.048Z,100
2023-05-06T07:23:02.047Z,100
2023-05-06T07:24:02.087Z,100
2023-05-06T07:25:01.964Z,100
2023-05-06T07:26:01.827Z,100
2023-05-06T07:27:01.947Z,100
2023-05-06T07:28:01.869Z,100
2023-05-06T07:29:01.932Z,100
2023-05-06T07:30:01.849Z,100
2023-05-06T07:31:01.993Z,100
2023-05-06T07:33:01.816Z,100
2023-05-06T07:34:01.558Z,100
2023-05-06T07:35:01.643Z,100
2023-05-06T07:36:02.538Z,100
2023-05-06T07:37:02.413Z,100
2023-05-06T07:38:02.489Z,100
2023-05-06T07:39:02.409Z,100
2023-05-06T07:40:02.465Z,100
2023-05-06T07:41:02.338Z,100
2023-05-06T07:42:02.440Z,100
2023-05-06T07:43:02.331Z,98
2023-05-06T07:44:02.452Z,100
2023-05-06T07:45:02.409Z,100
2023-05-06T07:46:02.899Z,100
2023-05-06T07:47:02.496Z,99
2023-05-06T07:48:02.518Z,100
2023-05-06T07:49:02.266Z,100
2023-05-06T07:50:02.347Z,100
2023-05-06T07:51:02.322Z,100
2023-05-06T07:52:02.386Z,100
2023-05-06T07:53:02.301Z,100
2023-05-06T07:54:02.387Z,100
2023-05-06T07:55:02.278Z,100
2023-05-06T07:56:02.606Z,100
2023-05-06T07:57:02.287Z,100
2023-05-06T07:58:02.455Z,100
2023-05-06T07:59:02.246Z,100
2023-05-06T08:00:02.497Z,100
2023-05-06T08:01:02.459Z,100
2023-05-06T08:03:02.246Z,100
2023-05-06T08:04:02.426Z,100
2023-05-06T08:05:02.399Z,100
2023-05-06T08:06:02.460Z,100
2023-05-06T08:07:02.328Z,100
2023-05-06T08:08:02.376Z,100
2023-05-06T08:09:02.281Z,100
2023-05-06T08:10:02.374Z,100
2023-05-06T08:11:02.230Z,100
2023-05-06T08:12:02.320Z,100
2023-05-06T08:13:02.282Z,100
2023-05-06T08:14:02.340Z,100
2023-05-06T08:15:02.244Z,100
2023-05-06T08:16:02.628Z,100
2023-05-06T08:18:22.113Z,100
2023-05-06T08:19:01.982Z,100
2023-05-06T08:20:01.965Z,100
2023-05-06T08:21:02.028Z,100
2023-05-06T08:22:01.935Z,100
2023-05-06T08:23:01.996Z,100
2023-05-06T08:24:01.909Z,100
2023-05-06T08:25:01.963Z,100
2023-05-06T08:26:01.710Z,100
2023-05-06T08:27:01.775Z,100
2023-05-06T08:28:01.583Z,100
2023-05-06T08:29:01.636Z,100
2023-05-06T08:30:01.587Z,100
2023-05-06T08:31:01.539Z,100
2023-05-06T08:32:02.626Z,100
2023-05-06T08:33:01.910Z,100
2023-05-06T08:34:01.909Z,100
2023-05-06T08:35:01.795Z,100
2023-05-06T08:36:01.829Z,100
2023-05-06T08:37:01.883Z,100
2023-05-06T08:38:01.659Z,100
2023-05-06T08:39:01.689Z,100
2023-05-06T08:40:01.533Z,100
2023-05-06T08:41:01.576Z,100
2023-05-06T08:42:02.482Z,100
2023-05-06T08:43:02.378Z,100
2023-05-06T08:44:02.461Z,100
2023-05-06T08:45:02.405Z,100
2023-05-06T08:46:02.574Z,100
2023-05-06T08:48:02.367Z,100
2023-05-06T08:49:02.243Z,100
2023-05-06T08:50:02.351Z,100
2023-05-06T08:51:02.171Z,100
2023-05-06T08:52:02.260Z,100
2023-05-06T08:53:02.230Z,100
2023-05-06T08:54:02.111Z,100
2023-05-06T08:55:02.187Z,100
2023-05-06T08:56:02.086Z,100
2023-05-06T08:57:02.052Z,100
2023-05-06T08:58:02.091Z,100
2023-05-06T08:59:01.974Z,100
2023-05-06T09:00:02.461Z,100
2023-05-06T09:01:01.615Z,100
2023-05-06T09:02:02.580Z,100
2023-05-06T09:03:02.653Z,100
2023-05-06T09:04:01.557Z,100
2023-05-06T09:05:02.535Z,100
2023-05-06T09:06:02.398Z,100
2023-05-06T09:07:02.499Z,100
2023-05-06T09:08:02.364Z,100
2023-05-06T09:09:02.396Z,100
2023-05-06T09:10:02.412Z,100
2023-05-06T09:11:02.347Z,100
2023-05-06T09:12:02.251Z,100
2023-05-06T09:13:02.349Z,100
2023-05-06T09:14:02.295Z,100
2023-05-06T09:15:02.408Z,100
2023-05-06T09:16:02.323Z,100
2023-05-06T09:17:02.383Z,100
2023-05-06T09:18:02.363Z,100
2023-05-06T09:19:02.067Z,100
2023-05-06T09:20:02.138Z,100
2023-05-06T09:21:02.100Z,100
2023-05-06T09:22:02.004Z,100
2023-05-06T09:23:02.003Z,100
2023-05-06T09:24:02.138Z,100
2023-05-06T09:25:01.939Z,100
2023-05-06T09:26:02.077Z,100
2023-05-06T09:27:01.914Z,100
2023-05-06T09:28:01.977Z,100
2023-05-06T09:29:01.883Z,100
2023-05-06T09:30:02.081Z,100
2023-05-06T09:31:01.895Z,100
2023-05-06T09:32:01.866Z,100
2023-05-06T09:33:02.024Z,100
2023-05-06T09:34:01.779Z,100
2023-05-06T09:35:01.878Z,100
2023-05-06T09:36:01.744Z,100
2023-05-06T09:37:01.749Z,100
2023-05-06T09:38:01.617Z,100
2023-05-06T09:39:01.671Z,100
2023-05-06T09:40:01.512Z,100
2023-05-06T09:41:01.540Z,100
2023-05-06T09:42:02.530Z,100
2023-05-06T09:43:02.373Z,100
2023-05-06T09:44:02.502Z,100
2023-05-06T09:45:02.703Z,100
2023-05-06T09:46:02.656Z,100
2023-05-06T09:48:02.268Z,100
2023-05-06T09:49:02.255Z,100
2023-05-06T09:50:02.091Z,100
2023-05-06T09:51:02.209Z,100
2023-05-06T09:52:02.089Z,100
2023-05-06T09:53:02.106Z,100
2023-05-06T09:54:02.131Z,100
2023-05-06T09:55:02.052Z,100
2023-05-06T09:56:02.018Z,100
2023-05-06T09:57:02.042Z,100
2023-05-06T09:58:01.926Z,100
2023-05-06T09:59:02.032Z,100
2023-05-06T10:00:02.211Z,100
2023-05-06T10:01:02.145Z,100
2023-05-06T10:03:01.856Z,100
2023-05-06T10:04:02.139Z,100
2023-05-06T10:05:02.651Z,100
2023-05-06T10:06:01.874Z,100
2023-05-06T10:07:01.702Z,100
2023-05-06T10:08:01.734Z,100
2023-05-06T10:09:01.616Z,100
2023-05-06T10:10:01.676Z,100
2023-05-06T10:11:01.495Z,100
2023-05-06T10:12:01.494Z,100
2023-05-06T10:13:02.554Z,100
2023-05-06T10:14:02.477Z,100
2023-05-06T10:15:02.516Z,100
2023-05-06T10:16:02.519Z,100
2023-05-06T10:17:02.408Z,100
2023-05-06T10:18:02.516Z,100
2023-05-06T10:19:02.385Z,100
2023-05-06T10:20:02.465Z,100
2023-05-06T10:21:02.349Z,100
2023-05-06T10:22:05.853Z,100
2023-05-06T10:23:01.499Z,100
2023-05-06T10:24:01.588Z,100
2023-05-06T10:25:02.555Z,100
2023-05-06T10:26:02.440Z,100
2023-05-06T10:27:02.494Z,100
2023-05-06T10:28:06.229Z,100
2023-05-06T10:29:01.652Z,100
2023-05-06T10:30:01.748Z,100
2023-05-06T10:31:01.639Z,100
2023-05-06T10:32:01.883Z,100
2023-05-06T10:33:01.900Z,100
2023-05-06T10:34:01.706Z,100
2023-05-06T10:35:01.770Z,100
2023-05-06T10:36:01.593Z,100
2023-05-06T10:37:01.652Z,100
2023-05-06T10:38:01.510Z,100
2023-05-06T10:39:01.545Z,100
2023-05-06T10:40:01.381Z,100
2023-05-06T10:41:02.475Z,100
2023-05-06T10:42:02.364Z,100
2023-05-06T10:43:02.524Z,100
2023-05-06T10:44:02.429Z,100
2023-05-06T10:45:02.554Z,100
2023-05-06T10:46:02.590Z,100
2023-05-06T10:48:02.019Z,100
2023-05-06T10:49:01.781Z,100
2023-05-06T10:50:01.862Z,100
2023-05-06T10:51:01.641Z,100
2023-05-06T10:52:01.697Z,100
2023-05-06T10:53:01.621Z,100
2023-05-06T10:54:01.644Z,100
2023-05-06T10:55:01.548Z,100
2023-05-06T10:56:01.566Z,100
2023-05-06T10:57:02.626Z,100
2023-05-06T10:58:02.408Z,100
2023-05-06T10:59:02.469Z,100
2023-05-06T11:00:02.393Z,100
2023-05-06T11:01:02.438Z,100
2023-05-06T11:02:02.530Z,100
2023-05-06T11:03:01.957Z,100
2023-05-06T11:04:02.001Z,100
2023-05-06T11:05:01.981Z,100
2023-05-06T11:06:02.050Z,100
2023-05-06T11:07:01.883Z,100
2023-05-06T11:08:01.936Z,100
2023-05-06T11:09:01.816Z,100
2023-05-06T11:10:01.886Z,100
2023-05-06T11:11:01.663Z,100
2023-05-06T11:12:01.756Z,100
2023-05-06T11:13:01.828Z,100
2023-05-06T11:14:01.773Z,100
2023-05-06T11:15:01.570Z,100
2023-05-06T11:16:01.594Z,100
2023-05-06T11:17:01.972Z,100
2023-05-06T11:18:01.902Z,100
2023-05-06T11:19:01.882Z,100
2023-05-06T11:20:01.667Z,100
2023-05-06T11:21:01.763Z,100
2023-05-06T11:22:01.672Z,100
2023-05-06T11:23:01.670Z,100
2023-05-06T11:24:01.611Z,100
2023-05-06T11:25:01.446Z,100
2023-05-06T11:26:02.426Z,100
2023-05-06T11:27:02.310Z,100
2023-05-06T11:28:02.373Z,100
2023-05-06T11:29:02.318Z,100
2023-05-06T11:30:02.404Z,100
2023-05-06T11:31:02.262Z,100
2023-05-06T11:32:02.302Z,100
2023-05-06T11:33:05.603Z,100
2023-05-06T11:34:01.555Z,100
2023-05-06T11:35:01.582Z,100
2023-05-06T11:36:02.497Z,100
2023-05-06T11:37:02.788Z,100
2023-05-06T11:38:01.776Z,100
2023-05-06T11:39:05.169Z,100
2023-05-06T11:40:01.883Z,100
2023-05-06T11:41:01.933Z,100
2023-05-06T11:42:01.780Z,100
2023-05-06T11:43:01.830Z,100
2023-05-06T11:44:01.708Z,100
2023-05-06T11:45:01.789Z,100
2023-05-06T11:46:01.740Z,100
2023-05-06T11:47:01.841Z,100
2023-05-06T11:48:01.987Z,100
2023-05-06T11:49:01.751Z,100
2023-05-06T11:50:01.826Z,100
2023-05-06T11:51:01.666Z,100
2023-05-06T11:52:01.752Z,100
2023-05-06T11:53:01.623Z,100
2023-05-06T11:54:01.659Z,100
2023-05-06T11:55:01.507Z,100
2023-05-06T11:56:01.558Z,100
2023-05-06T11:57:02.490Z,100
2023-05-06T11:58:02.402Z,100
2023-05-06T11:59:01.554Z,100
2023-05-06T12:00:03.097Z,100
2023-05-06T12:01:01.991Z,100
2023-05-06T12:03:02.645Z,100
2023-05-06T12:04:01.906Z,100
2023-05-06T12:05:02.168Z,100
2023-05-06T12:06:02.307Z,100
2023-05-06T12:07:02.157Z,100
2023-05-06T12:08:04.767Z,100
2023-05-06T12:09:01.983Z,100
2023-05-06T12:10:01.922Z,100
2023-05-06T12:11:01.994Z,100
2023-05-06T12:12:01.850Z,100
2023-05-06T12:13:01.972Z,100
2023-05-06T12:14:01.812Z,100
2023-05-06T12:15:01.766Z,100
2023-05-06T12:16:01.834Z,100
2023-05-06T12:17:01.569Z,100
2023-05-06T12:18:01.789Z,100
2023-05-06T12:19:01.568Z,100
2023-05-06T12:20:01.700Z,100
2023-05-06T12:21:01.508Z,100
2023-05-06T12:22:01.570Z,100
2023-05-06T12:23:02.481Z,100
2023-05-06T12:24:02.436Z,100
2023-05-06T12:25:02.471Z,100
2023-05-06T12:26:02.365Z,100
2023-05-06T12:27:02.489Z,100
2023-05-06T12:28:02.381Z,100
2023-05-06T12:29:02.493Z,100
2023-05-06T12:30:01.452Z,100
2023-05-06T12:31:02.479Z,100
2023-05-06T12:33:02.369Z,100
2023-05-06T12:34:02.276Z,100
2023-05-06T12:35:02.114Z,100
2023-05-06T12:36:02.177Z,100
2023-05-06T12:37:02.036Z,100
2023-05-06T12:38:01.966Z,100
2023-05-06T12:39:01.968Z,100
2023-05-06T12:40:01.866Z,100
2023-05-06T12:41:01.908Z,100
2023-05-06T12:42:01.777Z,100
2023-05-06T12:43:01.856Z,100
2023-05-06T12:44:01.682Z,100
2023-05-06T12:45:01.698Z,100
2023-05-06T12:46:01.799Z,100
2023-05-06T12:47:01.556Z,100
2023-05-06T12:48:01.742Z,100
2023-05-06T12:49:01.516Z,100
2023-05-06T12:50:01.553Z,100
2023-05-06T12:51:02.548Z,100
2023-05-06T12:52:02.453Z,100
2023-05-06T12:53:02.505Z,100
2023-05-06T12:54:01.483Z,100
2023-05-06T12:55:02.558Z,100
2023-05-06T12:56:02.448Z,100
2023-05-06T12:57:02.549Z,100
2023-05-06T12:58:01.456Z,100
2023-05-06T12:59:02.578Z,100
2023-05-06T13:00:02.335Z,100
2023-05-06T13:01:02.561Z,100
2023-05-06T13:03:02.287Z,100
2023-05-06T13:04:02.332Z,100
2023-05-06T13:05:02.271Z,100
2023-05-06T13:06:02.302Z,100
2023-05-06T13:07:02.254Z,100
2023-05-06T13:08:02.149Z,100
2023-05-06T13:09:02.064Z,100
2023-05-06T13:10:02.010Z,100
2023-05-06T13:11:02.099Z,100
2023-05-06T13:12:01.893Z,100
2023-05-06T13:13:02.118Z,100
2023-05-06T13:14:01.888Z,100
2023-05-06T13:15:01.985Z,100
2023-05-06T13:16:01.742Z,100
2023-05-06T13:17:02.497Z,100
2023-05-06T13:18:02.494Z,100
2023-05-06T13:19:02.363Z,100
2023-05-06T13:20:05.380Z,100
2023-05-06T13:21:02.177Z,100
2023-05-06T13:22:02.329Z,100
2023-05-06T13:23:02.062Z,100
2023-05-06T13:24:02.048Z,100
2023-05-06T13:25:01.991Z,100
2023-05-06T13:26:06.283Z,100
2023-05-06T13:27:02.016Z,100
2023-05-06T13:28:02.030Z,100
2023-05-06T13:29:01.864Z,100
2023-05-06T13:30:01.950Z,100
2023-05-06T13:31:01.836Z,100
2023-05-06T13:32:01.625Z,100
2023-05-06T13:33:01.782Z,100
2023-05-06T13:34:01.597Z,100
2023-05-06T13:35:01.530Z,100
2023-05-06T13:36:05.470Z,100
2023-05-06T13:37:02.249Z,100
2023-05-06T13:38:02.245Z,100
2023-05-06T13:39:02.208Z,100
2023-05-06T13:40:02.212Z,100
2023-05-06T13:41:02.154Z,100
2023-05-06T13:42:02.038Z,100
2023-05-06T13:43:01.988Z,100
2023-05-06T13:44:01.948Z,100
2023-05-06T13:45:02.004Z,100
2023-05-06T13:46:01.920Z,100
2023-05-06T13:47:01.704Z,100
2023-05-06T13:48:01.888Z,100
2023-05-06T13:49:01.709Z,100
2023-05-06T13:50:01.718Z,100
2023-05-06T13:51:01.508Z,100
2023-05-06T13:52:01.574Z,100
2023-05-06T13:53:02.524Z,100
2023-05-06T13:54:02.413Z,100
2023-05-06T13:55:02.536Z,100
2023-05-06T13:56:02.418Z,100
2023-05-06T13:57:02.458Z,100
2023-05-06T13:58:02.345Z,100
2023-05-06T13:59:02.432Z,100
2023-05-06T14:00:02.556Z,100
2023-05-06T14:01:02.191Z,100
2023-05-06T14:02:02.430Z,100
2023-05-06T14:03:02.438Z,100
2023-05-06T14:04:02.370Z,100
2023-05-06T14:05:02.361Z,100
2023-05-06T14:06:02.435Z,100
2023-05-06T14:07:02.349Z,100